Time;durP1;ratioP1;P1;durP2;ratioP2;P2;SDS_P1;SDS_P2;PMS_P1;PMS_P2;Temp;Humidity;BMP_temperature;BMP_pressure;BME280_temperature;BME280_humidity;BME280_pressure;Samples;Min_cycle;Max_cycle;Signal;HPM_P1;HPM_P2
2021/09/17 17:02:52;;;;;;;3.89;0.70;;;;;;;19.80;60.56;99171.53;1666602;66;51230484;-80
2021/09/17 17:59:30;;;;;;;4.10;0.70;;;;;;;15.84;80.01;99176.63;2340164;68;20171;-82
2021/09/17 18:03:08;;;;;;;4.47;0.70;;;;;;;15.75;80.53;99174.25;2347150;66;340872;-81
2021/09/17 18:06:33;;;;;;;1.51;0.74;;;;;;;15.58;80.76;99165.97;2345812;68;20115;-81
2021/09/17 19:20:18;;;;;;;1.19;1.09;;;;;;;14.11;85.07;99234.94;2344079;68;20119;-79
2021/09/17 19:24:22;;;;;;;3.10;1.08;;;;;;;14.02;85.46;99231.69;2353474;68;20099;-80
2021/09/17 19:27:50;;;;;;;1.90;1.08;;;;;;;13.96;85.44;99237.00;2350164;68;20264;-80
2021/09/17 19:31:42;;;;;;;3.44;1.20;;;;;;;13.88;85.61;99231.97;2335864;72;20120;-80
2021/09/17 19:35:19;;;;;;;2.29;1.00;;;;;;;13.81;85.67;99233.81;2356852;68;20206;-79
2021/09/17 19:42:50;;;;;;;1.19;1.09;;;;;;;13.68;85.76;99247.16;2344694;68;20177;-80
2021/09/17 19:46:45;;;;;;;1.84;1.23;;;;;;;13.51;86.50;99250.94;2205218;68;10516106;-80
2021/09/17 20:28:19;;;;;;;3.22;1.45;;;;;;;13.07;87.31;99269.06;2342767;69;20085;-81
2021/09/17 20:31:26;;;;;;;4.00;1.52;;;;;;;13.02;87.41;99270.00;2327801;69;20127;-81
2021/09/17 20:34:33;;;;;;;2.05;1.70;;;;;;;12.98;87.56;99267.47;2327726;69;20168;-81
2021/09/17 20:37:37;;;;;;;2.46;1.49;;;;;;;12.95;87.58;99272.75;2327551;69;20098;-82
2021/09/17 20:40:40;;;;;;;3.67;1.95;;;;;;;12.88;87.78;99269.34;2329468;69;20105;-81
2021/09/17 20:43:45;;;;;;;2.63;1.56;;;;;;;12.87;87.93;99266.78;2330768;69;20156;-81
2021/09/17 20:47:35;;;;;;;2.45;1.42;;;;;;;12.87;87.74;99269.38;2329172;69;20105;-82
2021/09/17 20:51:55;;;;;;;2.97;1.55;;;;;;;12.84;87.21;99265.09;2333437;68;20157;-83
2021/09/17 20:56:13;;;;;;;1.33;1.22;;;;;;;12.79;86.95;99266.06;2314478;68;20139;-82
2021/09/17 21:00:32;;;;;;;2.29;1.62;;;;;;;12.72;87.01;99273.09;2330624;68;20180;-82
2021/09/17 21:04:11;;;;;;;5.10;1.45;;;;;;;12.61;87.43;99267.19;2332918;68;20264;-82
2021/09/17 21:07:43;;;;;;;1.85;1.38;;;;;;;12.47;87.96;99262.16;2327309;68;20192;-81
2021/09/17 21:11:05;;;;;;;3.28;1.51;;;;;;;12.45;88.16;99268.28;2332675;69;20198;-81
2021/09/17 21:14:37;;;;;;;1.52;1.41;;;;;;;12.43;88.38;99270.91;2331546;69;20189;-81
2021/09/17 21:17:56;;;;;;;3.30;1.61;;;;;;;12.41;88.11;99267.47;2314758;69;969112;-82
2021/09/17 21:21:33;;;;;;;4.80;1.65;;;;;;;12.37;87.96;99276.19;2321064;69;20133;-81
2021/09/17 21:24:49;;;;;;;2.92;1.80;;;;;;;12.34;88.00;99282.31;2319267;69;20173;-82
2021/09/17 21:28:11;;;;;;;3.46;1.88;;;;;;;12.35;88.14;99277.94;2343444;69;20126;-81
2021/09/17 21:31:36;;;;;;;4.11;2.04;;;;;;;12.31;88.09;99274.53;2343708;69;20225;-81
2021/09/17 21:34:46;;;;;;;3.66;2.55;;;;;;;12.29;88.07;99283.25;2330105;69;20193;-81
2021/09/17 21:37:49;;;;;;;3.92;2.55;;;;;;;12.25;88.13;99281.56;2331403;69;20100;-80
2021/09/17 21:40:52;;;;;;;3.10;2.78;;;;;;;12.19;88.27;99273.81;2323018;69;20153;-80
2021/09/17 21:43:55;;;;;;;3.89;2.47;;;;;;;12.17;88.19;99279.06;2330430;69;20108;-79
2021/09/17 21:46:57;;;;;;;3.38;2.20;;;;;;;12.14;87.79;99280.84;2333634;69;20185;-80
2021/09/17 21:50:00;;;;;;;2.74;2.28;;;;;;;12.10;87.75;99282.63;2336087;69;20101;-80
2021/09/17 21:53:02;;;;;;;3.88;3.28;;;;;;;12.03;87.72;99276.66;2330406;69;20168;-80
2021/09/17 21:56:05;;;;;;;6.81;3.55;;;;;;;12.01;87.76;99275.78;2337812;69;20113;-80
2021/09/17 21:59:08;;;;;;;3.90;3.51;;;;;;;11.97;88.21;99278.44;2331934;69;20125;-79
2021/09/17 22:02:10;;;;;;;4.65;3.11;;;;;;;11.94;88.04;99281.09;2332112;69;20089;-80
2021/09/17 22:05:13;;;;;;;8.09;3.49;;;;;;;11.89;87.84;99273.34;2336826;69;20105;-80
2021/09/17 22:08:16;;;;;;;3.26;2.74;;;;;;;11.88;87.96;99282.03;2328996;69;20105;-80
2021/09/17 22:11:19;;;;;;;5.22;2.63;;;;;;;11.85;88.01;99278.56;2337015;69;20168;-80
2021/09/17 22:14:21;;;;;;;3.90;2.97;;;;;;;11.82;88.16;99281.22;2334797;69;20146;-81
2021/09/17 22:17:24;;;;;;;4.56;2.29;;;;;;;11.80;88.34;99286.44;2330868;66;36965;-80
2021/09/17 22:20:27;;;;;;;2.28;2.09;;;;;;;11.77;88.34;99281.25;2337357;69;20136;-80
2021/09/17 22:23:30;;;;;;;3.47;2.08;;;;;;;11.69;88.71;99276.13;2326662;69;20105;-80
2021/09/17 22:26:33;;;;;;;2.03;1.85;;;;;;;11.67;88.80;99277.00;2337215;69;20104;-80
2021/09/17 22:29:36;;;;;;;5.26;1.96;;;;;;;11.65;88.87;99278.75;2335103;69;20097;-80
2021/09/17 22:32:39;;;;;;;4.16;1.99;;;;;;;11.60;88.77;99278.81;2332743;66;24388;-81
2021/09/17 22:35:42;;;;;;;2.54;2.08;;;;;;;11.57;88.91;99278.84;2336373;69;20126;-81
2021/09/17 22:38:44;;;;;;;2.69;2.05;;;;;;;11.54;89.11;99278.03;2327666;69;20150;-80
2021/09/17 22:41:47;;;;;;;3.53;2.59;;;;;;;11.48;89.04;99272.00;2335476;69;20173;-79
2021/09/17 22:44:50;;;;;;;3.05;2.75;;;;;;;11.44;89.09;99272.91;2333710;69;20118;-81
2021/09/17 22:47:52;;;;;;;2.76;2.55;;;;;;;11.43;89.04;99286.78;2339305;66;95497;-80
2021/09/17 22:50:55;;;;;;;3.11;2.30;;;;;;;11.41;88.97;99278.13;2332834;69;20109;-80
2021/09/17 22:53:58;;;;;;;4.79;2.80;;;;;;;11.38;88.79;99275.56;2343657;69;20140;-80
2021/09/17 22:57:01;;;;;;;3.64;2.71;;;;;;;11.38;88.75;99275.56;2331691;69;20105;-80
2021/09/17 23:00:09;;;;;;;3.54;2.54;;;;;;;11.34;88.63;99273.03;2338364;69;20141;-81
2021/09/17 23:03:11;;;;;;;3.22;2.50;;;;;;;11.29;88.47;99264.38;2342540;69;20174;-81
2021/09/17 23:06:15;;;;;;;3.80;2.46;;;;;;;11.23;88.24;99270.50;2333293;69;20176;-80
2021/09/17 23:09:17;;;;;;;2.54;2.17;;;;;;;11.20;88.42;99266.22;2331869;69;20105;-79
2021/09/17 23:12:20;;;;;;;3.92;1.96;;;;;;;11.17;88.42;99266.25;2349916;69;20093;-81
2021/09/17 23:15:23;;;;;;;2.50;2.20;;;;;;;11.16;88.33;99268.84;2331499;69;20237;-81
2021/09/17 23:18:25;;;;;;;4.19;2.29;;;;;;;11.14;88.13;99273.22;2331632;69;20154;-80
2021/09/17 23:21:28;;;;;;;2.51;1.91;;;;;;;11.11;88.08;99273.22;2338181;69;20125;-80
2021/09/17 23:24:30;;;;;;;3.64;2.11;;;;;;;11.08;88.08;99266.31;2339885;69;20146;-80
2021/09/17 23:27:33;;;;;;;2.29;1.99;;;;;;;11.05;88.13;99266.34;2347462;69;20109;-81
2021/09/17 23:30:36;;;;;;;3.26;2.70;;;;;;;11.02;88.21;99270.72;2350315;69;20097;-80
2021/09/17 23:36:47;;;;;;;2.28;2.08;;;;;;;10.94;88.21;99291.53;2353458;69;20098;-79
2021/09/17 23:39:50;;;;;;;2.22;2.01;;;;;;;10.86;88.26;99289.00;2335638;69;20105;-80
2021/09/17 23:42:53;;;;;;;2.51;1.74;;;;;;;10.76;89.19;99286.47;2331494;69;20130;-79
2021/09/17 23:45:55;;;;;;;4.07;1.86;;;;;;;10.71;90.22;99291.69;2347142;69;20109;-80
2021/09/17 23:48:58;;;;;;;1.63;1.52;;;;;;;10.77;nan;99289.09;2328534;69;20131;-80
2021/09/17 23:52:01;;;;;;;2.29;1.60;;;;;;;10.82;90.45;99295.09;2339452;68;20165;-80
2021/09/17 23:55:05;;;;;;;2.01;1.80;;;;;;;10.82;90.34;99296.84;2334054;69;20160;-79
2021/09/17 23:58:07;;;;;;;2.01;1.89;;;;;;;10.80;90.17;99293.38;2330360;69;20172;-79
